Terminal Aerodrome Forecast
Issued by NWS Sioux Falls, SD

Home | Current Version | Previous Version | Graphics & Text | Print | Product List | Glossary On
Versions: 1 2 3 4 5 6 7 8 9 10 11 12 13 14 15 16 17 18 19 20 21 22 23 24 25 26 27 28 29 30 31 32 33 34 35 36 37 38
000
FTUS43 KFSD 200526
TAFSUX
TAF
KSUX 200526Z 2006/2106 32014G20KT P6SM SCT070
     FM201400 33018G26KT P6SM SCT040
     FM201600 32026G36KT P6SM SKC
     FM210100 29010KT P6SM SKC=

USA.gov is the U.S. government's official web portal to all federal, state and local government web resources and services.